Time;durP1;ratioP1;P1;durP2;ratioP2;P2;SDS_P1;SDS_P2;PMS_P1;PMS_P2;Temp;Humidity;BMP_temperature;BMP_pressure;BME280_temperature;BME280_humidity;BME280_pressure;Samples;Min_cycle;Max_cycle;Signal;HPM_P1;HPM_P2
2021/01/04 00:02:04;;;;;;;;;;;;;;;1.34;89.66;100384.54;1789209;80;25914;-52
2021/01/04 00:05:28;;;;;;;53.17;23.42;;;;;;;1.37;89.62;100388.05;1786744;80;25771;-66
2021/01/04 00:08:36;;;;;;;51.23;21.37;;;;;;;1.36;89.58;100378.97;1772687;80;25839;-47
2021/01/04 00:11:36;;;;;;;49.55;23.07;;;;;;;1.36;89.53;100378.44;1776189;80;25749;-56
2021/01/04 00:14:15;;;;;;;54.38;23.18;;;;;;;1.37;89.55;100376.59;1787487;80;25979;-45
2021/01/04 00:17:29;;;;;;;48.65;21.95;;;;;;;1.36;89.51;100370.44;1755246;80;26345;-48
2021/01/04 00:20:26;;;;;;;49.80;21.95;;;;;;;1.35;89.50;100374.17;1787408;80;25916;-46
2021/01/04 00:23:17;;;;;;;47.95;21.73;;;;;;;1.35;89.54;100367.51;1787381;80;25621;-65
2021/01/04 00:26:04;;;;;;;45.70;21.95;;;;;;;1.36;89.60;100368.30;1787421;80;25730;-62
2021/01/04 00:28:35;;;;;;;47.23;21.07;;;;;;;1.36;89.59;100374.44;1787280;80;27139;-55
2021/01/04 00:31:13;;;;;;;50.10;21.80;;;;;;;1.36;89.61;100374.44;1787164;80;25682;-60
2021/01/04 00:33:54;;;;;;;45.10;21.45;;;;;;;1.36;89.61;100374.44;1787287;80;26261;-59
2021/01/04 00:36:31;;;;;;;41.30;20.35;;;;;;;1.37;89.64;100373.39;1786479;80;25630;-56
2021/01/04 00:39:26;;;;;;;43.38;20.50;;;;;;;1.39;89.61;100371.81;1787423;80;25824;-62
2021/01/04 00:42:22;;;;;;;44.83;20.70;;;;;;;1.39;89.60;100373.16;1787264;80;25728;-62
2021/01/04 00:45:29;;;;;;;45.75;20.97;;;;;;;1.41;89.62;100373.17;1769450;80;25803;-59
2021/01/04 00:48:30;;;;;;;46.88;20.52;;;;;;;1.43;89.62;100369.76;1787458;80;25697;-59
2021/01/04 00:51:08;;;;;;;47.75;21.85;;;;;;;1.42;89.52;100370.00;1787364;79;26330;-59
2021/01/04 00:53:48;;;;;;;46.02;21.00;;;;;;;1.41;89.47;100367.84;1790577;80;25637;-58
2021/01/04 00:56:35;;;;;;;41.02;19.48;;;;;;;1.40;89.51;100356.91;1791041;80;25768;-60
2021/01/04 00:59:25;;;;;;;45.25;21.05;;;;;;;1.40;89.52;100365.45;1775816;79;25717;-59
2021/01/04 01:02:14;;;;;;;38.78;19.50;;;;;;;1.39;89.48;100364.62;1790753;80;25948;-60
2021/01/04 01:04:52;;;;;;;40.63;19.98;;;;;;;1.38;89.48;100364.36;1730280;82;25730;-61
2021/01/04 01:07:53;;;;;;;42.75;19.07;;;;;;;1.37;89.52;100362.73;1775995;80;25748;-44
2021/01/04 01:10:22;;;;;;;40.05;18.60;;;;;;;1.36;89.57;100354.98;1729267;79;26202;-62
2021/01/04 01:13:16;;;;;;;41.33;20.17;;;;;;;1.35;89.62;100348.85;1790452;80;26244;-45
2021/01/04 01:15:51;;;;;;;46.58;21.07;;;;;;;1.33;89.55;100353.62;1790338;80;25611;-63
2021/01/04 01:18:44;;;;;;;42.75;19.65;;;;;;;1.32;89.63;100349.88;1779167;80;25824;-58
2021/01/04 01:21:11;;;;;;;44.13;19.77;;;;;;;1.32;89.71;100350.67;1789219;79;26325;-45
2021/01/04 01:23:41;;;;;;;40.00;19.50;;;;;;;1.33;89.68;100357.62;1790288;80;25739;-56
2021/01/04 01:26:31;;;;;;;50.90;22.27;;;;;;;1.30;89.66;100352.78;1790597;80;25640;-59
2021/01/04 01:29:26;;;;;;;48.45;20.77;;;;;;;1.30;89.74;100354.11;1790475;79;25717;-56
2021/01/04 01:32:07;;;;;;;43.13;18.98;;;;;;;1.31;89.78;100358.38;1789101;79;25602;-56
2021/01/04 01:34:44;;;;;;;47.27;20.97;;;;;;;1.34;89.85;100354.42;1789716;80;25994;-53
2021/01/04 01:37:22;;;;;;;47.85;22.20;;;;;;;1.35;89.88;100368.84;1790380;80;26896;-55
2021/01/04 01:39:58;;;;;;;45.85;22.13;;;;;;;1.35;89.83;100366.17;1790403;80;26011;-55
2021/01/04 01:43:18;;;;;;;48.45;21.62;;;;;;;1.35;89.78;100370.17;1789442;79;25840;-55
2021/01/04 01:46:02;;;;;;;51.58;22.20;;;;;;;1.37;89.78;100363.27;1790421;80;25714;-53
2021/01/04 01:49:00;;;;;;;49.45;20.75;;;;;;;1.40;89.85;100360.12;1790446;80;25723;-49
2021/01/04 01:51:48;;;;;;;48.10;21.95;;;;;;;1.38;89.74;100351.03;1790267;79;27318;-53
2021/01/04 01:54:43;;;;;;;50.97;21.97;;;;;;;1.40;89.75;100355.58;1790001;80;26194;-52
2021/01/04 01:57:21;;;;;;;46.42;21.35;;;;;;;1.41;89.79;100351.84;1789994;80;25670;-54
2021/01/04 02:00:16;;;;;;;48.60;21.55;;;;;;;1.40;89.70;100360.91;1790281;80;25697;-53
2021/01/04 02:03:09;;;;;;;46.58;20.23;;;;;;;1.40;89.69;100363.58;1790521;80;25682;-49
2021/01/04 02:06:05;;;;;;;50.38;22.13;;;;;;;1.40;89.68;100351.58;1789486;79;25954;-52
2021/01/04 02:08:37;;;;;;;54.63;22.35;;;;;;;1.41;89.69;100348.38;1790369;80;25738;-54
2021/01/04 02:11:09;;;;;;;47.15;21.90;;;;;;;1.41;89.72;100345.18;1790354;79;26396;-52
2021/01/04 02:13:56;;;;;;;47.30;21.80;;;;;;;1.42;89.74;100335.34;1790033;80;25638;-54
2021/01/04 02:16:34;;;;;;;48.20;21.55;;;;;;;1.43;89.75;100339.10;1790317;80;25666;-53
2021/01/04 02:19:27;;;;;;;51.68;22.10;;;;;;;1.45;89.74;100341.52;1789158;79;27529;-52
2021/01/04 02:22:26;;;;;;;48.98;22.00;;;;;;;1.44;89.73;100342.03;1790319;80;25627;-54
2021/01/04 02:24:53;;;;;;;48.65;21.15;;;;;;;1.46;89.72;100345.78;1789778;79;25757;-53
2021/01/04 02:27:37;;;;;;;48.40;21.35;;;;;;;1.44;89.69;100338.03;1790276;80;25769;-52
2021/01/04 02:30:06;;;;;;;47.93;20.08;;;;;;;1.45;89.70;100342.86;1790452;80;25623;-53
2021/01/04 02:32:32;;;;;;;47.53;21.10;;;;;;;1.45;89.72;100336.98;1790320;80;26782;-53
2021/01/04 02:35:00;;;;;;;46.18;21.25;;;;;;;1.45;89.71;100336.20;1790141;79;25654;-50
2021/01/04 02:37:27;;;;;;;44.60;20.45;;;;;;;1.46;89.78;100334.62;1765753;80;25716;-53
2021/01/04 02:39:59;;;;;;;47.13;21.52;;;;;;;1.47;89.79;100338.87;1790267;80;25798;-54
2021/01/04 02:42:39;;;;;;;44.27;19.82;;;;;;;1.49;89.84;100334.09;1789043;79;26010;-54
2021/01/04 02:45:17;;;;;;;45.45;20.65;;;;;;;1.52;89.84;100336.02;1765787;80;26133;-51
2021/01/04 02:47:59;;;;;;;46.25;20.85;;;;;;;1.59;89.84;100345.42;1846090;75;32855;-54
2021/01/04 02:50:56;;;;;;;51.33;20.27;;;;;;;1.53;89.80;100340.27;1816624;78;25822;-53
2021/01/04 02:53:55;;;;;;;47.75;20.88;;;;;;;1.54;89.74;100341.90;1816549;78;26151;-50
2021/01/04 02:56:28;;;;;;;;;;;;;;;1.53;89.69;100337.08;1818998;78;25677;-54
2021/01/04 02:59:36;;;;;;;47.70;20.97;;;;;;;1.54;89.75;100338.70;1816087;78;25672;-51
2021/01/04 03:02:14;;;;;;;45.08;20.77;;;;;;;1.55;89.83;100334.16;1745489;81;25682;-53
2021/01/04 03:04:41;;;;;;;45.88;20.45;;;;;;;1.54;89.75;100337.90;1745530;82;25765;-54
2021/01/04 03:07:16;;;;;;;45.85;20.52;;;;;;;1.54;89.78;100332.56;1745573;82;25777;-52
2021/01/04 03:09:47;;;;;;;50.23;21.17;;;;;;;1.56;89.81;100336.58;1745486;82;25753;-52
2021/01/04 03:12:21;;;;;;;50.00;21.25;;;;;;;1.58;89.83;100330.47;1745566;82;25702;-51
2021/01/04 03:15:21;;;;;;;48.15;21.02;;;;;;;1.66;89.81;100337.24;1846569;76;32959;-53
2021/01/04 03:18:09;;;;;;;46.45;21.35;;;;;;;1.60;89.75;100339.05;1816562;78;26334;-54
2021/01/04 03:20:36;;;;;;;49.20;20.50;;;;;;;1.61;89.76;100339.31;1784960;78;26155;-52
2021/01/04 03:23:03;;;;;;;45.20;20.82;;;;;;;1.63;89.77;100336.40;1816364;78;25706;-54
2021/01/04 03:25:38;;;;;;;45.43;21.15;;;;;;;1.64;89.76;100341.48;1816584;78;25768;-54
2021/01/04 03:28:16;;;;;;;46.83;19.87;;;;;;;1.66;89.77;100332.70;1816540;78;25684;-55
2021/01/04 03:30:42;;;;;;;42.85;19.75;;;;;;;1.66;89.76;100332.70;1809994;78;25674;-54
2021/01/04 03:33:09;;;;;;;47.43;20.52;;;;;;;1.68;89.68;100334.59;1816563;78;27334;-54
2021/01/04 03:35:36;;;;;;;39.25;19.77;;;;;;;1.70;89.72;100336.22;1816487;78;25723;-53
2021/01/04 03:38:02;;;;;;;41.77;19.30;;;;;;;1.72;89.68;100332.77;1816246;78;25642;-54
2021/01/04 03:40:29;;;;;;;40.80;19.30;;;;;;;1.73;89.63;100339.19;1816479;78;25601;-53
2021/01/04 03:42:56;;;;;;;37.83;18.25;;;;;;;1.72;89.58;100337.59;1816578;78;25919;-54
2021/01/04 03:45:23;;;;;;;39.40;18.82;;;;;;;1.73;89.58;100343.19;1816442;78;26155;-55
2021/01/04 03:47:49;;;;;;;35.33;17.20;;;;;;;1.74;89.59;100346.66;1816435;78;26281;-55
2021/01/04 03:50:17;;;;;;;38.48;17.62;;;;;;;1.75;89.57;100342.41;1816610;78;25684;-54
2021/01/04 03:52:44;;;;;;;35.73;18.45;;;;;;;1.77;89.62;100346.16;1816411;78;26222;-55
2021/01/04 03:55:13;;;;;;;39.18;18.25;;;;;;;1.78;89.58;100347.25;1816485;78;26350;-53
2021/01/04 03:57:39;;;;;;;34.43;17.77;;;;;;;1.78;89.55;100345.91;1785095;78;25796;-55
2021/01/04 04:00:08;;;;;;;39.98;18.15;;;;;;;1.79;89.48;100353.41;1816468;78;25629;-55
2021/01/04 04:02:35;;;;;;;33.65;16.97;;;;;;;1.79;89.48;100353.41;1816765;78;25771;-55
2021/01/04 04:05:07;;;;;;;32.33;16.45;;;;;;;1.79;89.44;100350.74;1816516;78;26316;-56
2021/01/04 04:07:34;;;;;;;36.08;17.15;;;;;;;1.80;89.41;100347.00;1816607;78;25720;-55
2021/01/04 04:10:04;;;;;;;37.60;16.75;;;;;;;1.79;89.41;100347.54;1784660;78;26344;-56
2021/01/04 04:12:31;;;;;;;34.95;17.98;;;;;;;1.79;89.39;100350.74;1816527;78;25748;-55
2021/01/04 04:14:57;;;;;;;30.82;15.43;;;;;;;1.80;89.42;100351.80;1824401;78;25613;-55
2021/01/04 04:17:24;;;;;;;32.17;16.30;;;;;;;1.81;89.39;100353.96;1825736;78;25660;-51
2021/01/04 04:19:51;;;;;;;31.27;15.78;;;;;;;1.80;89.37;100352.34;1825798;78;25755;-56
2021/01/04 04:22:18;;;;;;;33.53;15.83;;;;;;;1.79;89.34;100356.88;1825806;78;26735;-53
2021/01/04 04:24:46;;;;;;;31.05;15.25;;;;;;;1.79;89.38;100356.88;1825378;78;25724;-57
2021/01/04 04:27:15;;;;;;;29.60;15.38;;;;;;;1.79;89.41;100358.20;1825146;78;25745;-54
2021/01/04 04:29:45;;;;;;;29.77;15.23;;;;;;;1.79;89.44;100354.20;1825398;78;25643;-48
2021/01/04 04:32:12;;;;;;;32.03;16.87;;;;;;;1.79;89.43;100358.20;1825403;78;25779;-52
2021/01/04 04:34:39;;;;;;;30.15;16.00;;;;;;;1.81;89.46;100357.96;1825031;78;25689;-56
2021/01/04 04:37:07;;;;;;;29.07;16.35;;;;;;;1.82;89.43;100356.38;1825075;78;25657;-53
2021/01/04 04:39:35;;;;;;;28.10;14.30;;;;;;;1.79;89.31;100362.75;1825263;78;25778;-55
2021/01/04 04:42:14;;;;;;;27.75;14.68;;;;;;;1.78;89.36;100361.92;1825044;78;26098;-55
2021/01/04 04:45:06;;;;;;;29.98;16.23;;;;;;;1.79;89.39;100361.41;1825213;78;25696;-54
2021/01/04 04:48:12;;;;;;;32.73;16.37;;;;;;;1.81;89.48;100364.09;1825123;78;25750;-55
2021/01/04 04:51:20;;;;;;;30.62;16.20;;;;;;;1.81;89.46;100358.76;1825098;78;26409;-54
2021/01/04 04:54:08;;;;;;;27.62;15.50;;;;;;;1.79;89.35;100358.74;1825121;78;25721;-53
2021/01/04 04:56:58;;;;;;;26.90;15.03;;;;;;;1.78;89.39;100363.25;1825095;78;25665;-54
2021/01/04 04:59:43;;;;;;;30.25;16.55;;;;;;;1.79;89.42;100368.08;1825043;78;25677;-53
2021/01/04 05:02:27;;;;;;;34.13;16.52;;;;;;;1.79;89.51;100366.20;1824960;78;26731;-55
2021/01/04 05:05:14;;;;;;;32.63;16.95;;;;;;;1.80;89.50;100369.14;1825135;78;25997;-55
2021/01/04 05:07:58;;;;;;;34.30;16.23;;;;;;;1.82;89.50;100376.89;1824733;78;25604;-53
2021/01/04 05:10:29;;;;;;;34.35;16.90;;;;;;;1.81;89.49;100372.09;1825081;78;25451;-55
2021/01/04 05:13:01;;;;;;;33.67;16.87;;;;;;;1.82;89.48;100379.56;1824753;78;26296;-55
2021/01/04 05:16:07;;;;;;;35.08;17.95;;;;;;;1.83;89.52;100377.98;1825056;78;25704;-56
2021/01/04 05:19:04;;;;;;;35.43;17.17;;;;;;;1.83;89.45;100369.98;1825059;78;25676;-53
2021/01/04 05:22:12;;;;;;;31.42;16.45;;;;;;;1.84;89.40;100381.48;1825051;78;25826;-55
2021/01/04 05:25:08;;;;;;;35.38;17.23;;;;;;;1.82;89.40;100383.05;1825017;78;25601;-53
2021/01/04 05:28:21;;;;;;;33.67;17.70;;;;;;;1.82;89.46;100379.56;1824796;78;25692;-51
2021/01/04 05:31:28;;;;;;;29.55;16.55;;;;;;;1.83;89.50;100386.52;1824941;78;27257;-54
2021/01/04 05:34:16;;;;;;;33.50;18.17;;;;;;;1.81;89.49;100388.64;1824924;78;25681;-53
2021/01/04 05:37:10;;;;;;;35.52;17.57;;;;;;;1.79;89.46;100383.55;1824153;78;25611;-56
2021/01/04 05:40:18;;;;;;;34.88;18.05;;;;;;;1.80;89.54;100389.14;1825122;78;26247;-57
2021/01/04 05:43:27;;;;;;;35.00;18.42;;;;;;;1.80;89.52;100388.34;1794807;78;25850;-56
2021/01/04 05:46:08;;;;;;;34.50;16.77;;;;;;;1.81;89.49;100389.97;1825008;78;26292;-55
2021/01/04 05:48:55;;;;;;;35.05;16.62;;;;;;;1.80;89.53;100395.81;1824934;78;25712;-53
2021/01/04 05:51:39;;;;;;;34.90;17.55;;;;;;;1.79;89.49;100393.42;1804963;78;26390;-53
2021/01/04 05:54:06;;;;;;;36.48;18.70;;;;;;;1.81;89.56;100388.10;1824882;78;25664;-55
2021/01/04 05:56:34;;;;;;;37.40;18.65;;;;;;;1.81;89.56;100396.09;1825033;78;25621;-55
2021/01/04 05:59:16;;;;;;;34.95;17.77;;;;;;;1.84;89.59;100398.81;1825163;78;25887;-55
2021/01/04 06:01:45;;;;;;;36.03;18.98;;;;;;;1.84;89.55;100400.95;1825008;78;25839;-54
2021/01/04 06:04:25;;;;;;;37.63;19.60;;;;;;;1.85;89.50;100399.87;1825147;78;25915;-54
2021/01/04 06:07:02;;;;;;;31.27;18.67;;;;;;;1.84;89.44;100392.94;1825206;78;25649;-56
2021/01/04 06:09:30;;;;;;;35.35;18.87;;;;;;;1.85;89.46;100402.54;1825158;78;26359;-55
2021/01/04 06:12:02;;;;;;;33.38;17.87;;;;;;;1.85;89.40;100396.41;1825090;78;25754;-56
2021/01/04 06:14:33;;;;;;;34.43;18.17;;;;;;;1.85;89.41;100407.08;1824767;78;25621;-56
2021/01/04 06:17:08;;;;;;;37.75;19.32;;;;;;;1.84;89.42;100402.28;1824922;78;26308;-55
2021/01/04 06:19:42;;;;;;;35.33;19.23;;;;;;;1.86;89.48;100412.17;1825008;78;25812;-55
2021/01/04 06:22:19;;;;;;;31.55;17.70;;;;;;;1.87;89.45;100407.63;1824965;78;25692;-54
2021/01/04 06:24:47;;;;;;;35.70;20.00;;;;;;;1.89;89.47;100407.38;1823940;78;26137;-55
2021/01/04 06:27:37;;;;;;;36.90;19.50;;;;;;;1.90;89.46;100411.67;1797161;78;25772;-55
2021/01/04 06:30:38;;;;;;;38.83;19.32;;;;;;;1.91;89.41;100411.94;1824917;78;25293;-54
2021/01/04 06:33:15;;;;;;;38.63;18.92;;;;;;;1.90;89.35;100405.80;1825009;78;26354;-55
2021/01/04 06:35:42;;;;;;;36.05;19.75;;;;;;;1.91;89.36;100415.44;1824982;78;25731;-53
2021/01/04 06:38:26;;;;;;;36.15;18.77;;;;;;;1.92;89.43;100413.56;1824972;78;26381;-56
2021/01/04 06:40:54;;;;;;;38.42;20.02;;;;;;;1.92;89.34;100417.56;1824844;78;25688;-47
2021/01/04 06:43:31;;;;;;;38.15;20.52;;;;;;;1.92;89.39;100416.23;1824948;78;25686;-54
2021/01/04 06:46:15;;;;;;;35.58;18.73;;;;;;;1.93;89.40;100423.19;1825015;78;25731;-51
2021/01/04 06:48:50;;;;;;;36.35;18.98;;;;;;;1.94;89.36;100421.61;1824989;78;25700;-52
2021/01/04 06:51:39;;;;;;;36.60;18.90;;;;;;;1.94;89.40;100420.28;1824968;78;25761;-55
2021/01/04 06:54:40;;;;;;;37.10;19.55;;;;;;;1.95;89.35;100421.88;1824880;78;25474;-55
2021/01/04 06:57:38;;;;;;;35.70;18.48;;;;;;;1.95;89.32;100421.88;1824978;78;25721;-55
2021/01/04 07:00:26;;;;;;;38.10;18.45;;;;;;;1.96;89.36;100420.00;1823658;78;25232;-55
2021/01/04 07:03:09;;;;;;;34.98;18.55;;;;;;;1.98;89.39;100419.25;1825025;78;25751;-56
2021/01/04 07:05:45;;;;;;;39.88;19.00;;;;;;;1.98;89.42;100414.71;1824951;78;25837;-55
2021/01/04 07:08:23;;;;;;;34.25;19.20;;;;;;;2.01;89.39;100410.73;1824903;78;25683;-54
2021/01/04 07:11:01;;;;;;;34.05;18.37;;;;;;;2.01;89.35;100411.55;1804039;78;25761;-55
2021/01/04 07:13:53;;;;;;;38.65;19.55;;;;;;;2.01;89.35;100407.55;1824818;78;25854;-55
2021/01/04 07:16:41;;;;;;;34.63;18.92;;;;;;;2.03;89.32;100400.64;1786547;80;26271;-52
2021/01/04 07:19:41;;;;;;;35.95;18.75;;;;;;;2.03;89.33;100405.44;1786583;80;26018;-55
2021/01/04 07:22:51;;;;;;;37.45;19.48;;;;;;;2.05;89.36;100401.98;1786589;80;26370;-55
2021/01/04 07:25:47;;;;;;;37.58;19.90;;;;;;;2.07;89.32;100414.28;1786636;79;25746;-55
2021/01/04 07:29:01;;;;;;;38.65;20.62;;;;;;;2.03;89.31;100409.44;1786549;80;25745;-55
2021/01/04 07:31:59;;;;;;;32.05;18.30;;;;;;;2.10;89.32;100412.45;1786647;80;25709;-54
2021/01/04 07:34:43;;;;;;;35.95;18.32;;;;;;;2.09;89.33;100411.62;1786533;80;25776;-54
2021/01/04 07:37:54;;;;;;;40.00;20.55;;;;;;;2.10;89.26;100410.58;1768526;80;26366;-58
2021/01/04 07:41:01;;;;;;;36.95;20.57;;;;;;;2.10;89.32;100403.91;1786873;80;25651;-61
2021/01/04 07:44:11;;;;;;;33.75;18.32;;;;;;;2.09;89.37;100399.62;1786936;80;25625;-62
2021/01/04 07:47:23;;;;;;;38.30;20.27;;;;;;;2.13;89.35;100405.27;1785860;80;25780;-61
2021/01/04 07:50:39;;;;;;;38.28;19.40;;;;;;;2.14;89.33;100403.68;1785896;80;26175;-56
2021/01/04 07:53:26;;;;;;;35.25;19.75;;;;;;;2.13;89.29;100399.92;1786607;80;25641;-61
2021/01/04 07:56:07;;;;;;;39.63;21.07;;;;;;;2.14;89.34;100406.34;1731423;80;26244;-61
2021/01/04 07:58:42;;;;;;;38.88;21.37;;;;;;;2.15;89.34;100406.64;1785850;80;25793;-63
2021/01/04 08:01:52;;;;;;;41.80;21.42;;;;;;;2.16;89.33;100403.44;1784493;80;25745;-57
2021/01/04 08:04:42;;;;;;;;;;;;;;;2.17;89.38;100405.06;1731437;80;26692;-63
2021/01/04 08:07:26;;;;;;;36.08;20.08;;;;;;;2.18;89.34;100413.33;1786887;80;25680;-61
2021/01/04 08:10:21;;;;;;;40.58;21.52;;;;;;;2.20;89.49;100422.70;1786454;80;25848;-49
2021/01/04 08:13:44;;;;;;;39.10;19.95;;;;;;;2.23;89.50;100421.39;1787005;80;25614;-56
2021/01/04 08:16:24;;;;;;;39.13;19.52;;;;;;;2.27;89.52;100423.05;1816776;78;25758;-57
2021/01/04 08:18:55;;;;;;;37.30;20.02;;;;;;;2.29;89.45;100427.08;1825367;78;27239;-59
2021/01/04 08:21:53;;;;;;;37.23;20.52;;;;;;;2.30;89.38;100427.87;1825446;78;25652;-58
2021/01/04 08:24:29;;;;;;;38.25;21.15;;;;;;;2.32;89.35;100420.44;1825541;78;25652;-59
2021/01/04 08:27:21;;;;;;;40.12;20.20;;;;;;;2.34;89.26;100420.98;1825376;78;25708;-58
2021/01/04 08:29:54;;;;;;;41.13;20.35;;;;;;;2.34;89.23;100425.79;1824758;78;25729;-57
2021/01/04 08:32:54;;;;;;;35.98;20.35;;;;;;;2.35;89.26;100436.77;1825409;78;26154;-56
2021/01/04 08:35:35;;;;;;;37.40;20.45;;;;;;;2.37;89.23;100434.64;1825363;78;34761;-57
2021/01/04 08:38:30;;;;;;;35.03;19.23;;;;;;;2.36;89.04;100442.36;1825288;78;25642;-56
2021/01/04 08:41:08;;;;;;;37.73;20.60;;;;;;;2.36;89.06;100447.70;1825288;78;25653;-55
2021/01/04 08:43:46;;;;;;;39.05;20.00;;;;;;;2.35;88.96;100449.28;1820131;78;25706;-57
2021/01/04 08:46:24;;;;;;;38.20;20.23;;;;;;;2.36;89.07;100467.72;1825407;78;25699;-59
2021/01/04 08:48:58;;;;;;;40.58;21.02;;;;;;;2.35;88.91;100466.12;1825261;78;25743;-58
2021/01/04 08:51:33;;;;;;;38.25;20.52;;;;;;;2.36;88.99;100474.93;1825276;78;25685;-57
2021/01/04 08:54:05;;;;;;;35.80;19.87;;;;;;;2.38;89.08;100472.31;1825341;78;25681;-57
2021/01/04 08:56:42;;;;;;;38.50;20.25;;;;;;;2.40;89.17;100478.20;1815283;78;25677;-55
2021/01/04 08:59:14;;;;;;;38.75;21.00;;;;;;;2.43;89.05;100476.37;1825357;78;25684;-57
2021/01/04 09:01:55;;;;;;;41.28;20.90;;;;;;;2.43;88.94;100472.36;1824926;78;25783;-58
2021/01/04 09:04:36;;;;;;;41.23;20.92;;;;;;;2.43;88.93;100467.02;1772573;78;25739;-56
2021/01/04 09:07:17;;;;;;;37.67;20.92;;;;;;;2.44;88.96;100473.16;1825373;78;26252;-57
2021/01/04 09:10:03;;;;;;;41.73;22.58;;;;;;;2.47;88.89;100472.66;1825424;78;25744;-55
2021/01/04 09:12:41;;;;;;;42.93;21.95;;;;;;;2.45;88.76;100473.42;1822922;78;25995;-55
2021/01/04 09:15:16;;;;;;;42.50;22.50;;;;;;;2.45;88.81;100476.09;1824393;78;25866;-55
2021/01/04 09:17:53;;;;;;;42.50;22.70;;;;;;;2.46;88.73;100472.38;1820336;78;25626;-56
2021/01/04 09:20:53;;;;;;;42.43;22.87;;;;;;;2.44;88.76;100465.16;1822391;78;25685;-55
2021/01/04 09:23:31;;;;;;;46.02;22.82;;;;;;;2.47;88.80;100470.50;1811471;77;25746;-56
2021/01/04 09:26:08;;;;;;;49.33;25.00;;;;;;;2.44;88.67;100469.16;1809705;78;25815;-60
2021/01/04 09:28:46;;;;;;;46.37;24.70;;;;;;;2.44;88.71;100475.83;1822373;78;25752;-56
2021/01/04 09:31:17;;;;;;;46.90;23.52;;;;;;;2.44;88.71;100471.83;1822469;78;25715;-53
2021/01/04 09:33:51;;;;;;;46.23;24.65;;;;;;;2.43;88.80;100465.69;1822418;78;25269;-54
2021/01/04 09:36:23;;;;;;;48.90;24.27;;;;;;;2.47;88.86;100469.17;1822577;78;25745;-58
2021/01/04 09:39:03;;;;;;;46.70;25.10;;;;;;;2.51;89.06;100468.97;1822379;78;26379;-56
2021/01/04 09:41:30;;;;;;;49.83;26.20;;;;;;;2.53;88.99;100472.19;1822323;78;25671;-56
2021/01/04 09:44:10;;;;;;;49.13;26.10;;;;;;;2.55;88.83;100467.39;1822519;78;25716;-59
2021/01/04 09:46:57;;;;;;;46.42;24.02;;;;;;;2.55;88.81;100465.52;1822556;78;25629;-58
2021/01/04 09:49:46;;;;;;;49.13;26.75;;;;;;;2.56;88.76;100464.47;1822385;78;26155;-57
2021/01/04 09:52:27;;;;;;;49.65;24.40;;;;;;;2.57;88.70;100466.61;1813521;78;33230;-53
2021/01/04 09:54:59;;;;;;;53.13;26.82;;;;;;;2.59;88.82;100455.97;1809995;78;25771;-58
2021/01/04 09:57:26;;;;;;;52.10;27.25;;;;;;;2.63;88.91;100454.93;1822392;78;25633;-60
2021/01/04 09:59:53;;;;;;;52.00;28.75;;;;;;;2.65;88.89;100452.02;1822402;78;25741;-56
2021/01/04 10:02:25;;;;;;;55.60;29.40;;;;;;;2.68;88.89;100450.17;1822411;78;25640;-57
2021/01/04 10:04:53;;;;;;;56.37;30.48;;;;;;;2.71;88.88;100456.36;1822400;78;25756;-57
2021/01/04 10:07:29;;;;;;;60.48;31.82;;;;;;;2.73;88.79;100451.56;1822298;78;26277;-57
2021/01/04 10:09:56;;;;;;;57.40;30.10;;;;;;;2.75;88.75;100457.45;1822544;78;25714;-59
2021/01/04 10:12:27;;;;;;;56.53;29.12;;;;;;;2.76;88.72;100461.20;1822340;78;25782;-58
2021/01/04 10:14:59;;;;;;;59.15;30.25;;;;;;;2.78;88.67;100463.63;1816732;77;25844;-58
2021/01/04 10:17:39;;;;;;;54.53;28.05;;;;;;;2.80;88.63;100465.52;1810816;77;26011;-60
2021/01/04 10:20:36;;;;;;;58.65;31.15;;;;;;;2.79;88.50;100464.72;1819578;78;25714;-57
2021/01/04 10:23:04;;;;;;;58.78;30.70;;;;;;;2.83;88.56;100464.19;1805135;78;25689;-57
2021/01/04 10:25:39;;;;;;;58.02;29.67;;;;;;;2.86;88.65;100465.85;1762085;80;25631;-58
2021/01/04 10:28:07;;;;;;;61.28;28.80;;;;;;;2.88;88.59;100460.23;1762347;81;26362;-60
2021/01/04 10:30:34;;;;;;;53.63;29.80;;;;;;;2.91;88.63;100455.21;1762142;81;25898;-61
2021/01/04 10:33:32;;;;;;;52.88;29.57;;;;;;;2.96;88.73;100455.77;1762121;80;26330;-58
2021/01/04 10:36:03;;;;;;;57.13;30.48;;;;;;;3.01;88.68;100461.69;1762144;80;25775;-59
2021/01/04 10:38:33;;;;;;;62.93;31.87;;;;;;;3.07;88.83;100465.49;1760541;80;25766;-58
2021/01/04 10:41:03;;;;;;;61.02;30.35;;;;;;;3.10;88.56;100454.80;1762148;81;25707;-56
2021/01/04 10:43:30;;;;;;;58.23;29.42;;;;;;;3.09;88.36;100458.56;1761955;80;26411;-58
2021/01/04 10:45:57;;;;;;;62.20;31.82;;;;;;;3.12;88.40;100452.17;1761976;81;26114;-58
2021/01/04 10:48:26;;;;;;;57.23;30.10;;;;;;;3.16;88.57;100445.78;1762239;81;25770;-59
2021/01/04 10:50:57;;;;;;;57.55;30.85;;;;;;;3.20;88.55;100448.20;1748940;81;25770;-57
2021/01/04 10:53:36;;;;;;;62.27;32.95;;;;;;;3.26;88.65;100445.06;1762234;80;25718;-56
2021/01/04 10:56:20;;;;;;;59.40;31.30;;;;;;;3.28;88.50;100453.63;1762257;81;32871;-59
2021/01/04 10:59:11;;;;;;;59.98;31.57;;;;;;;3.31;88.29;100451.23;1762182;81;25591;-58
2021/01/04 11:01:42;;;;;;;60.90;31.00;;;;;;;3.33;88.20;100445.64;1761108;81;25762;-58
2021/01/04 11:04:12;;;;;;;58.80;29.98;;;;;;;3.35;88.31;100445.67;1761685;80;25671;-58
2021/01/04 11:06:43;;;;;;;54.35;30.80;;;;;;;3.38;88.30;100440.86;1761641;80;26084;-56
2021/01/04 11:09:21;;;;;;;60.00;30.48;;;;;;;3.44;88.29;100441.16;1761371;80;26706;-57
2021/01/04 11:11:51;;;;;;;55.63;29.85;;;;;;;3.40;88.02;100431.51;1761406;80;25781;-59
2021/01/04 11:14:22;;;;;;;57.53;30.90;;;;;;;3.47;88.07;100428.08;1748102;81;25788;-59
2021/01/04 11:16:59;;;;;;;55.85;31.20;;;;;;;3.50;88.19;100436.92;1772223;78;25708;-55
2021/01/04 11:19:32;;;;;;;62.10;32.95;;;;;;;3.55;88.17;100432.14;1757805;80;26367;-58
2021/01/04 11:22:26;;;;;;;54.75;30.75;;;;;;;3.61;88.33;100430.30;1780030;80;25957;-58
2021/01/04 11:24:55;;;;;;;60.95;30.37;;;;;;;3.67;88.36;100427.94;1775250;80;25749;-60
2021/01/04 11:27:24;;;;;;;57.48;31.45;;;;;;;3.71;88.05;100429.02;1780007;80;26410;-60
2021/01/04 11:29:52;;;;;;;56.05;30.60;;;;;;;3.72;87.92;100428.76;1731001;82;26385;-63
2021/01/04 11:32:21;;;;;;;64.32;32.85;;;;;;;3.76;88.00;100414.33;1737444;81;25861;-61
2021/01/04 11:34:52;;;;;;;56.70;29.48;;;;;;;3.82;87.89;100415.97;1780057;80;26981;-57
2021/01/04 11:37:22;;;;;;;57.67;30.25;;;;;;;3.81;87.38;100414.34;1780804;80;25666;-56
2021/01/04 11:39:50;;;;;;;59.77;31.95;;;;;;;3.76;87.10;100421.02;1781202;80;25638;-58
2021/01/04 11:42:18;;;;;;;64.17;34.38;;;;;;;3.76;87.18;100420.22;1781234;80;25999;-56
2021/01/04 11:44:45;;;;;;;61.70;33.90;;;;;;;3.73;87.20;100412.98;1781031;80;25702;-59
2021/01/04 11:47:12;;;;;;;59.67;32.00;;;;;;;3.74;87.20;100417.26;1781172;80;25716;-59
2021/01/04 11:49:40;;;;;;;64.00;32.58;;;;;;;3.76;87.38;100408.17;1781032;80;25718;-60
2021/01/04 11:52:07;;;;;;;58.25;31.57;;;;;;;3.79;87.48;100406.33;1781185;80;25635;-58
2021/01/04 11:54:34;;;;;;;61.15;33.00;;;;;;;3.82;87.48;100403.13;1781195;80;25855;-60
2021/01/04 11:57:00;;;;;;;58.70;32.93;;;;;;;3.83;87.57;100395.36;1781284;80;25670;-61
2021/01/04 11:59:27;;;;;;;61.02;32.53;;;;;;;3.87;87.50;100397.80;1781190;80;26001;-60
2021/01/04 12:01:54;;;;;;;64.05;34.03;;;;;;;3.86;87.34;100391.62;1781199;80;26296;-58
2021/01/04 12:04:21;;;;;;;64.05;33.80;;;;;;;3.86;87.20;100401.53;1781167;80;25745;-57
2021/01/04 12:06:50;;;;;;;62.30;32.80;;;;;;;3.88;87.44;100396.20;1781178;80;25705;-61
2021/01/04 12:09:18;;;;;;;65.12;33.55;;;;;;;3.91;87.45;100392.98;1781419;80;25671;-60
2021/01/04 12:11:47;;;;;;;65.42;34.15;;;;;;;3.95;87.39;100390.61;1781136;80;25750;-58
2021/01/04 12:14:17;;;;;;;59.45;32.00;;;;;;;3.98;87.42;100383.91;1781285;80;30419;-60
2021/01/04 12:16:44;;;;;;;58.97;32.83;;;;;;;3.98;87.17;100391.95;1782003;80;25608;-50
2021/01/04 12:19:11;;;;;;;60.03;31.82;;;;;;;3.99;87.22;100390.34;1780664;80;25639;-56